createdAt,value
2022-08-19T00:00:12.494Z,1008.94
2022-08-19T00:01:13.105Z,1008.94
2022-08-19T00:02:13.527Z,1008.93
2022-08-19T00:03:14.077Z,1008.91
2022-08-19T00:04:14.701Z,1008.90
2022-08-19T00:05:15.258Z,1008.89
2022-08-19T00:06:15.860Z,1008.88
2022-08-19T00:07:16.405Z,1008.87
2022-08-19T00:08:16.956Z,1008.85
2022-08-19T00:09:17.486Z,1008.84
2022-08-19T00:10:18.011Z,1008.82
2022-08-19T00:11:25.322Z,1008.82
2022-08-19T00:12:19.547Z,1008.80
2022-08-19T00:13:20.094Z,1008.79
2022-08-19T00:14:20.623Z,1008.78
2022-08-19T00:15:21.153Z,1008.75
2022-08-19T00:16:22.790Z,1008.74
2022-08-19T00:17:22.363Z,1008.72
2022-08-19T00:18:22.895Z,1008.71
2022-08-19T00:19:23.434Z,1008.72
2022-08-19T00:20:23.979Z,1008.72
2022-08-19T00:21:24.555Z,1008.72
2022-08-19T00:22:25.097Z,1008.72
2022-08-19T00:23:25.625Z,1008.71
2022-08-19T00:24:26.151Z,1008.70
2022-08-19T00:25:30.153Z,1008.69
2022-08-19T00:26:27.348Z,1008.68
2022-08-19T00:27:27.878Z,1008.67
2022-08-19T00:28:28.410Z,1008.67
2022-08-19T00:29:28.938Z,1008.68
2022-08-19T00:30:29.466Z,1008.68
2022-08-19T00:31:30.107Z,1008.69
2022-08-19T00:32:30.665Z,1008.69
2022-08-19T00:33:31.212Z,1008.68
2022-08-19T00:34:31.730Z,1008.69
2022-08-19T00:35:32.256Z,1008.70
2022-08-19T00:36:32.878Z,1008.70
2022-08-19T00:37:33.419Z,1008.69
2022-08-19T00:38:37.592Z,1008.69
2022-08-19T00:39:34.727Z,1008.68
2022-08-19T00:40:35.313Z,1008.68
2022-08-19T00:41:35.988Z,1008.68
2022-08-19T00:42:36.534Z,1008.67
2022-08-19T00:43:37.069Z,1008.64
2022-08-19T00:44:37.608Z,1008.63
2022-08-19T00:45:38.150Z,1008.63
2022-08-19T00:46:38.712Z,1008.64
2022-08-19T00:47:39.248Z,1008.64
2022-08-19T00:48:39.789Z,1008.64
2022-08-19T00:49:40.323Z,1008.63
2022-08-19T00:50:51.613Z,1008.63
2022-08-19T00:51:41.856Z,1008.61
2022-08-19T00:52:42.387Z,1008.61
2022-08-19T00:53:42.921Z,1008.60
2022-08-19T00:54:43.447Z,1008.60
2022-08-19T00:55:43.979Z,1008.59
2022-08-19T00:56:44.541Z,1008.59
2022-08-19T00:57:45.080Z,1008.60
2022-08-19T00:58:45.608Z,1008.60
2022-08-19T00:59:56.576Z,1008.61
2022-08-19T01:00:47.047Z,1008.61
2022-08-19T01:01:47.692Z,1008.59
2022-08-19T01:02:48.288Z,1008.59
2022-08-19T01:03:58.026Z,1008.59
2022-08-19T01:04:49.723Z,1008.59
2022-08-19T01:05:50.265Z,1008.60
2022-08-19T01:06:50.869Z,1008.60
2022-08-19T01:07:51.399Z,1008.60
2022-08-19T01:08:51.929Z,1008.60
2022-08-19T01:09:52.458Z,1008.62
2022-08-19T01:10:52.999Z,1008.63
2022-08-19T01:11:53.621Z,1008.64
2022-08-19T01:12:54.301Z,1008.65
2022-08-19T01:13:54.947Z,1008.65
2022-08-19T01:14:55.475Z,1008.66
2022-08-19T01:15:56.008Z,1008.67
2022-08-19T01:16:56.896Z,1008.67
2022-08-19T01:17:57.435Z,1008.67
2022-08-19T01:18:57.978Z,1008.66
2022-08-19T01:19:58.515Z,1008.65
2022-08-19T01:20:59.054Z,1008.64
2022-08-19T01:21:59.618Z,1008.65
2022-08-19T01:23:00.093Z,1008.66
2022-08-19T01:24:00.622Z,1008.68
2022-08-19T01:25:01.164Z,1008.69
2022-08-19T01:26:01.707Z,1008.70
2022-08-19T01:27:02.265Z,1008.71
2022-08-19T01:28:11.043Z,1008.70
2022-08-19T01:29:05.256Z,1008.69
2022-08-19T01:30:04.883Z,1008.67
2022-08-19T01:31:07.954Z,1008.66
2022-08-19T01:32:06.375Z,1008.65
2022-08-19T01:33:06.913Z,1008.64
2022-08-19T01:34:07.449Z,1008.64
2022-08-19T01:35:07.977Z,1008.62
2022-08-19T01:36:08.509Z,1008.60
2022-08-19T01:37:09.120Z,1008.59
2022-08-19T01:38:09.664Z,1008.58
2022-08-19T01:39:10.200Z,1008.60
2022-08-19T01:40:10.864Z,1008.61
2022-08-19T01:41:11.423Z,1008.62
2022-08-19T01:42:12.101Z,1008.62
2022-08-19T01:43:12.630Z,1008.62
2022-08-19T01:44:17.539Z,1008.63
2022-08-19T01:45:14.066Z,1008.63
2022-08-19T01:46:14.599Z,1008.63
2022-08-19T01:47:15.169Z,1008.63
2022-08-19T01:48:15.699Z,1008.63
2022-08-19T01:49:16.229Z,1008.63
2022-08-19T01:50:16.779Z,1008.63
2022-08-19T01:51:17.314Z,1008.62
2022-08-19T01:52:17.875Z,1008.62
2022-08-19T01:53:18.410Z,1008.62
2022-08-19T01:54:23.437Z,1008.62
2022-08-19T01:55:19.849Z,1008.62
2022-08-19T01:56:20.378Z,1008.63
2022-08-19T01:57:20.981Z,1008.63
2022-08-19T01:58:21.513Z,1008.63
2022-08-19T01:59:22.046Z,1008.62
2022-08-19T02:00:22.578Z,1008.64
2022-08-19T02:01:23.157Z,1008.62
2022-08-19T02:02:23.994Z,1008.61
2022-08-19T02:03:24.555Z,1008.61
2022-08-19T02:04:25.092Z,1008.62
2022-08-19T02:05:25.623Z,1008.64
2022-08-19T02:06:27.004Z,1008.65
2022-08-19T02:07:26.859Z,1008.65
2022-08-19T02:08:27.395Z,1008.65
2022-08-19T02:09:27.922Z,1008.64
2022-08-19T02:10:28.460Z,1008.64
2022-08-19T02:11:28.987Z,1008.63
2022-08-19T02:12:29.619Z,1008.62
2022-08-19T02:13:30.144Z,1008.61
2022-08-19T02:14:30.680Z,1008.62
2022-08-19T02:15:31.214Z,1008.59
2022-08-19T02:16:31.784Z,1008.55
2022-08-19T02:17:32.353Z,1008.57
2022-08-19T02:18:32.889Z,1008.62
2022-08-19T02:19:33.429Z,1008.65
2022-08-19T02:20:33.955Z,1008.66
2022-08-19T02:21:34.485Z,1008.64
2022-08-19T02:22:35.053Z,1008.61
2022-08-19T02:23:35.593Z,1008.59
2022-08-19T02:24:36.134Z,1008.57
2022-08-19T02:25:36.668Z,1008.54
2022-08-19T02:26:37.208Z,1008.56
2022-08-19T02:27:37.777Z,1008.55
2022-08-19T02:28:38.318Z,1008.55
2022-08-19T02:29:38.869Z,1008.55
2022-08-19T02:30:39.406Z,1008.52
2022-08-19T02:31:39.937Z,1008.54
2022-08-19T02:32:44.284Z,1008.52
2022-08-19T02:33:41.415Z,1008.48
2022-08-19T02:34:41.951Z,1008.45
2022-08-19T02:35:42.489Z,1008.41
2022-08-19T02:36:43.026Z,1008.43
2022-08-19T02:37:43.617Z,1008.43
2022-08-19T02:38:47.085Z,1008.44
2022-08-19T02:39:45.092Z,1008.42
2022-08-19T02:40:45.667Z,1008.41
2022-08-19T02:41:46.201Z,1008.40
2022-08-19T02:42:46.967Z,1008.41
2022-08-19T02:43:59.421Z,1008.41
2022-08-19T02:44:48.446Z,1008.40
2022-08-19T02:45:48.995Z,1008.41
2022-08-19T02:46:49.525Z,1008.42
2022-08-19T02:47:50.366Z,1008.41
2022-08-19T02:48:50.900Z,1008.41
2022-08-19T02:49:51.455Z,1008.41
2022-08-19T02:50:53.586Z,1008.40
2022-08-19T02:51:52.801Z,1008.39
2022-08-19T02:52:53.570Z,1008.40
2022-08-19T02:53:54.176Z,1008.39
2022-08-19T02:54:54.710Z,1008.39
2022-08-19T02:55:55.238Z,1008.40
2022-08-19T02:56:55.766Z,1008.40
2022-08-19T02:57:56.326Z,1008.40
2022-08-19T02:58:56.876Z,1008.40
2022-08-19T02:59:57.442Z,1008.40
2022-08-19T03:00:58.055Z,1008.41
2022-08-19T03:01:58.602Z,1008.42
2022-08-19T03:02:59.224Z,1008.42
2022-08-19T03:03:59.762Z,1008.43
2022-08-19T03:05:00.301Z,1008.43
2022-08-19T03:06:00.830Z,1008.44
2022-08-19T03:07:10.674Z,1008.44
2022-08-19T03:08:02.326Z,1008.45
2022-08-19T03:09:02.892Z,1008.47
2022-08-19T03:10:03.429Z,1008.49
2022-08-19T03:11:03.978Z,1008.49
2022-08-19T03:12:04.509Z,1008.46
2022-08-19T03:13:05.127Z,1008.46
2022-08-19T03:14:05.752Z,1008.45
2022-08-19T03:15:06.288Z,1008.46
2022-08-19T03:16:06.824Z,1008.46
2022-08-19T03:17:07.350Z,1008.47
2022-08-19T03:18:07.991Z,1008.46
2022-08-19T03:19:08.662Z,1008.48
2022-08-19T03:20:09.195Z,1008.47
2022-08-19T03:21:10.452Z,1008.47
2022-08-19T03:22:10.599Z,1008.49
2022-08-19T03:23:11.155Z,1008.50
2022-08-19T03:24:11.684Z,1008.50
2022-08-19T03:25:12.214Z,1008.49
2022-08-19T03:26:15.887Z,1008.50
2022-08-19T03:27:13.420Z,1008.50
2022-08-19T03:28:13.990Z,1008.50
2022-08-19T03:29:14.518Z,1008.51
2022-08-19T03:30:15.422Z,1008.53
2022-08-19T03:31:44.320Z,1008.52
2022-08-19T03:32:32.198Z,1008.53
2022-08-19T03:33:26.461Z,1008.53
2022-08-19T03:34:19.084Z,1008.55
2022-08-19T03:35:19.624Z,1008.56
2022-08-19T03:36:20.157Z,1008.57
2022-08-19T03:37:20.687Z,1008.56
2022-08-19T03:38:21.277Z,1008.58
2022-08-19T03:39:21.809Z,1008.60
2022-08-19T03:40:22.336Z,1008.62
2022-08-19T03:41:22.870Z,1008.64
2022-08-19T03:42:38.264Z,1008.66
2022-08-19T03:43:24.493Z,1008.67
2022-08-19T03:44:25.025Z,1008.67
2022-08-19T03:45:25.586Z,1008.70
2022-08-19T03:46:26.120Z,1008.72
2022-08-19T03:47:26.661Z,1008.71
2022-08-19T03:48:27.264Z,1008.70
2022-08-19T03:49:28.412Z,1008.70
2022-08-19T03:50:28.653Z,1008.69
2022-08-19T03:51:30.726Z,1008.67
2022-08-19T03:52:29.826Z,1008.67
2022-08-19T03:53:30.394Z,1008.70
2022-08-19T03:54:30.943Z,1008.72
2022-08-19T03:55:31.475Z,1008.73
2022-08-19T03:56:32.016Z,1008.74
2022-08-19T03:57:32.543Z,1008.73
2022-08-19T03:58:33.096Z,1008.73
2022-08-19T03:59:33.640Z,1008.73
2022-08-19T04:00:34.192Z,1008.72
2022-08-19T04:01:34.941Z,1008.70
2022-08-19T04:02:35.672Z,1008.71
2022-08-19T04:03:36.268Z,1008.72
2022-08-19T04:04:36.799Z,1008.73
2022-08-19T04:05:37.338Z,1008.75
2022-08-19T04:06:39.489Z,1008.76
2022-08-19T04:07:38.463Z,1008.77
2022-08-19T04:08:39.010Z,1008.78
2022-08-19T04:09:39.552Z,1008.79
2022-08-19T04:10:40.084Z,1008.80
2022-08-19T04:11:43.133Z,1008.81
2022-08-19T04:12:41.177Z,1008.83
2022-08-19T04:13:41.818Z,1008.84
2022-08-19T04:14:42.351Z,1008.86
2022-08-19T04:15:42.888Z,1008.88
2022-08-19T04:16:43.434Z,1008.89
2022-08-19T04:17:43.969Z,1008.90
2022-08-19T04:18:44.521Z,1008.90
2022-08-19T04:19:45.077Z,1008.91
2022-08-19T04:20:45.605Z,1008.91
2022-08-19T04:21:46.138Z,1008.93
2022-08-19T04:22:46.764Z,1008.95
2022-08-19T04:23:47.349Z,1008.97
2022-08-19T04:24:47.883Z,1009.00
2022-08-19T04:25:48.424Z,1009.03
2022-08-19T04:26:48.962Z,1009.04
2022-08-19T04:27:49.521Z,1009.06
2022-08-19T04:28:50.083Z,1009.07
2022-08-19T04:29:50.619Z,1009.07
2022-08-19T04:30:51.161Z,1009.07
2022-08-19T04:31:51.702Z,1009.07
2022-08-19T04:32:52.348Z,1009.09
2022-08-19T04:33:53.027Z,1009.10
2022-08-19T04:35:02.097Z,1009.10
2022-08-19T04:35:54.456Z,1009.12
2022-08-19T04:36:54.983Z,1009.13
2022-08-19T04:37:55.515Z,1009.14
2022-08-19T04:38:56.078Z,1009.14
2022-08-19T04:39:58.704Z,1009.15
2022-08-19T04:40:57.517Z,1009.15
2022-08-19T04:41:58.049Z,1009.16
2022-08-19T04:42:58.589Z,1009.17
2022-08-19T04:44:04.118Z,1009.17
2022-08-19T04:45:00.247Z,1009.19
2022-08-19T04:46:01.274Z,1009.20
2022-08-19T04:47:01.506Z,1009.22
2022-08-19T04:48:26.280Z,1009.24
2022-08-19T04:49:10.488Z,1009.26
2022-08-19T04:50:03.943Z,1009.28
2022-08-19T04:51:04.473Z,1009.28
2022-08-19T04:52:05.005Z,1009.30
2022-08-19T04:53:05.560Z,1009.31
2022-08-19T04:54:06.128Z,1009.32
2022-08-19T04:55:06.665Z,1009.33
2022-08-19T04:56:07.196Z,1009.34
2022-08-19T04:57:08.238Z,1009.34
2022-08-19T04:58:08.501Z,1009.35
2022-08-19T04:59:09.063Z,1009.35
2022-08-19T05:00:09.598Z,1009.35
2022-08-19T05:01:10.198Z,1009.35
2022-08-19T05:02:10.776Z,1009.36
2022-08-19T05:03:11.313Z,1009.36
2022-08-19T05:04:12.129Z,1009.36
2022-08-19T05:05:12.658Z,1009.35
2022-08-19T05:06:13.190Z,1009.35
2022-08-19T05:07:13.718Z,1009.36
2022-08-19T05:08:15.389Z,1009.37
2022-08-19T05:09:14.929Z,1009.38
2022-08-19T05:10:15.466Z,1009.40
2022-08-19T05:11:16.018Z,1009.42
2022-08-19T05:12:16.648Z,1009.44
2022-08-19T05:13:17.333Z,1009.46
2022-08-19T05:14:17.952Z,1009.48
2022-08-19T05:15:18.482Z,1009.50
2022-08-19T05:16:19.022Z,1009.52
2022-08-19T05:17:28.756Z,1009.53
2022-08-19T05:18:20.458Z,1009.54
2022-08-19T05:19:21.245Z,1009.55
2022-08-19T05:20:21.780Z,1009.56
2022-08-19T05:21:22.314Z,1009.57
2022-08-19T05:22:22.848Z,1009.59
2022-08-19T05:23:23.384Z,1009.59
2022-08-19T05:24:23.956Z,1009.60
2022-08-19T05:25:24.488Z,1009.61
2022-08-19T05:26:25.015Z,1009.60
2022-08-19T05:27:25.551Z,1009.60
2022-08-19T05:28:26.095Z,1009.60
2022-08-19T05:29:26.657Z,1009.60
2022-08-19T05:30:46.177Z,1009.59
2022-08-19T05:31:28.454Z,1009.59
2022-08-19T05:32:29.007Z,1009.59
2022-08-19T05:33:29.560Z,1009.59
2022-08-19T05:34:30.200Z,1009.60
2022-08-19T05:35:34.588Z,1009.60
2022-08-19T05:36:31.464Z,1009.62
2022-08-19T05:37:32.005Z,1009.63
2022-08-19T05:38:32.534Z,1009.63
2022-08-19T05:39:33.180Z,1009.64
2022-08-19T05:40:33.747Z,1009.64
2022-08-19T05:41:34.296Z,1009.63
2022-08-19T05:42:35.217Z,1009.62
2022-08-19T05:43:35.744Z,1009.61
2022-08-19T05:44:36.417Z,1009.61
2022-08-19T05:45:36.955Z,1009.61
2022-08-19T05:46:37.491Z,1009.62
2022-08-19T05:47:40.635Z,1009.61
2022-08-19T05:48:38.878Z,1009.61
2022-08-19T05:49:39.448Z,1009.62
2022-08-19T05:50:39.990Z,1009.61
2022-08-19T05:51:40.543Z,1009.60
2022-08-19T05:52:43.586Z,1009.59
2022-08-19T05:53:41.849Z,1009.58
2022-08-19T05:54:42.428Z,1009.57
2022-08-19T05:55:42.983Z,1009.58
2022-08-19T05:56:43.517Z,1009.57
2022-08-19T05:57:44.050Z,1009.57
2022-08-19T05:58:44.606Z,1009.58
2022-08-19T05:59:45.156Z,1009.58
2022-08-19T06:00:45.796Z,1009.57
2022-08-19T06:01:46.339Z,1009.57
2022-08-19T06:02:47.011Z,1009.56
2022-08-19T06:03:47.646Z,1009.55
2022-08-19T06:04:48.271Z,1009.56
2022-08-19T06:05:51.767Z,1009.58
2022-08-19T06:06:49.785Z,1009.59
2022-08-19T06:07:50.418Z,1009.59
2022-08-19T06:08:51.035Z,1009.59
2022-08-19T06:10:00.144Z,1009.59
2022-08-19T06:10:52.501Z,1009.61
2022-08-19T06:11:55.936Z,1009.62
2022-08-19T06:12:53.726Z,1009.64
2022-08-19T06:13:57.240Z,1009.65
2022-08-19T06:14:56.048Z,1009.67
2022-08-19T06:15:55.667Z,1009.67
2022-08-19T06:16:56.211Z,1009.66
2022-08-19T06:17:56.748Z,1009.67
2022-08-19T06:18:57.295Z,1009.68
2022-08-19T06:19:57.900Z,1009.69
2022-08-19T06:20:58.443Z,1009.70
2022-08-19T06:21:58.978Z,1009.69
2022-08-19T06:22:59.707Z,1009.70
2022-08-19T06:24:00.254Z,1009.70
2022-08-19T06:25:00.808Z,1009.70
2022-08-19T06:26:01.335Z,1009.70
2022-08-19T06:27:02.045Z,1009.69
2022-08-19T06:28:17.770Z,1009.69
2022-08-19T06:29:03.509Z,1009.69
2022-08-19T06:30:04.069Z,1009.71
2022-08-19T06:31:04.604Z,1009.72
2022-08-19T06:32:05.145Z,1009.73
2022-08-19T06:33:05.696Z,1009.72
2022-08-19T06:34:06.227Z,1009.72
2022-08-19T06:35:06.781Z,1009.71
2022-08-19T06:36:07.333Z,1009.70
2022-08-19T06:37:07.878Z,1009.69
2022-08-19T06:38:08.409Z,1009.69
2022-08-19T06:39:08.936Z,1009.68
2022-08-19T06:40:09.609Z,1009.66
2022-08-19T06:41:10.212Z,1009.65
2022-08-19T06:42:10.982Z,1009.64
2022-08-19T06:43:11.710Z,1009.62
2022-08-19T06:44:13.298Z,1009.61
2022-08-19T06:45:13.037Z,1009.60
2022-08-19T06:46:14.564Z,1009.60
2022-08-19T06:47:23.510Z,1009.61
2022-08-19T06:48:15.247Z,1009.63
2022-08-19T06:49:15.792Z,1009.64
2022-08-19T06:50:16.763Z,1009.66
2022-08-19T06:51:19.346Z,1009.68
2022-08-19T06:52:18.015Z,1009.69
2022-08-19T06:53:18.546Z,1009.68
2022-08-19T06:54:19.993Z,1009.66
2022-08-19T06:55:19.889Z,1009.65
2022-08-19T06:56:20.425Z,1009.66
2022-08-19T06:57:20.954Z,1009.67
2022-08-19T06:58:21.502Z,1009.67
2022-08-19T06:59:22.035Z,1009.67
2022-08-19T07:00:22.679Z,1009.68
2022-08-19T07:01:23.243Z,1009.69
2022-08-19T07:02:23.789Z,1009.71
2022-08-19T07:03:24.320Z,1009.74
2022-08-19T07:04:24.851Z,1009.76
2022-08-19T07:05:25.555Z,1009.78
2022-08-19T07:06:43.380Z,1009.79
2022-08-19T07:07:26.991Z,1009.81
2022-08-19T07:08:27.736Z,1009.82
2022-08-19T07:09:28.218Z,1009.82
2022-08-19T07:10:29.181Z,1009.83
2022-08-19T07:11:29.721Z,1009.83
2022-08-19T07:12:30.581Z,1009.84
2022-08-19T07:13:31.119Z,1009.84
2022-08-19T07:14:31.652Z,1009.85
2022-08-19T07:15:32.344Z,1009.86
2022-08-19T07:16:32.885Z,1009.87
2022-08-19T07:17:34.639Z,1009.88
2022-08-19T07:18:34.333Z,1009.89
2022-08-19T07:19:35.077Z,1009.89
2022-08-19T07:20:35.683Z,1009.88
2022-08-19T07:21:37.581Z,1009.87
2022-08-19T07:22:37.187Z,1009.87
2022-08-19T07:24:37.267Z,1009.89
2022-08-19T07:25:38.822Z,1009.91
2022-08-19T07:26:39.792Z,1009.93
2022-08-19T07:27:40.267Z,1009.94
2022-08-19T07:28:40.804Z,1009.94
2022-08-19T07:29:41.703Z,1009.94
2022-08-19T07:30:42.287Z,1009.94
2022-08-19T07:31:43.455Z,1009.95
2022-08-19T07:32:43.744Z,1009.96
2022-08-19T07:33:44.299Z,1009.97
2022-08-19T07:34:44.852Z,1009.96
2022-08-19T07:35:45.491Z,1009.94
2022-08-19T07:36:46.028Z,1009.92
2022-08-19T07:37:46.571Z,1009.91
2022-08-19T07:38:47.205Z,1009.91
2022-08-19T07:39:47.774Z,1009.92
2022-08-19T07:40:48.388Z,1009.92
2022-08-19T07:41:48.918Z,1009.93
2022-08-19T07:42:49.448Z,1009.93
2022-08-19T07:43:49.988Z,1009.92
2022-08-19T07:44:51.160Z,1009.92
2022-08-19T07:45:51.359Z,1009.93
2022-08-19T07:46:53.290Z,1009.94
2022-08-19T07:47:52.961Z,1009.95
2022-08-19T07:48:53.495Z,1009.96
2022-08-19T07:49:54.026Z,1009.98
2022-08-19T07:50:54.589Z,1009.99
2022-08-19T07:51:55.124Z,1010.00
2022-08-19T07:52:55.611Z,1010.00
2022-08-19T07:53:56.590Z,1009.99
2022-08-19T07:54:57.568Z,1010.00
2022-08-19T07:55:58.595Z,1010.01
2022-08-19T07:56:59.075Z,1010.02
2022-08-19T07:58:00.088Z,1010.01
2022-08-19T07:59:00.620Z,1009.99
2022-08-19T08:00:01.605Z,1009.97
